METAR Data
IDs: Format: Raw Decoded Include TAF

Data at: 0747 UTC 01 Aug 2021

EDDF 010720Z 28007KT 250V330 9999 FEW027 18/12 Q1010 NOSIG